22ème Rallye Terre des Causses
Championnat de France des Rallyes sur Terre
1 3 MAURIN Julien/URAL Olivier Citroën DS3 WRC A 8W 6:40,1 80km/h 1
2 1 CUOQ Jean-Marie/GRANDEMANGE Marielle Citroën C4 WRC FA 8W 6:40,5 +00:00,4 +00:00,4 1
3 11 GILBERT Quentin/JAMOUL Renaud Skoda Fabia R5 R 5 6:53,5 +00:13,4 +00:13,0
4 14 FALCO Jean-Marc/BOUERI Jonathan Peugeot 208 T16 R 5 6:54,8 +00:14,7 +00:01,3 1
5 12 BERFA Jordan/AUGUSTIN Damien HUYNDAI i20 R5 R 5 6:57,1 +00:17,0 +00:02,3 1
6 4 DURBEC Thibault/RENUCCI Jacques-Julien Citroën DS3 WRC A 8W 7:01,5 +00:21,4 +00:04,4 1
7 18 PONS Xavier/ORIOL Julia Peugeot 208 T16 R 5 7:02,6 +00:22,5 +00:01,1
8 19 MORDACQ Arnaud/RATIER Marie-Noelle Mitsubishi Lancer Evo9 N 4 7:10,1 +00:30,0 +00:07,5 1
9 9 FERAUD Cyrille/DUCHEMIN Aymeric Citroën C4 WRC FA 8W 7:15,2 +00:35,1 +00:05,1 1
10 16 PETIT Jean-Eric/MAURIN Mathieu Ford Fiesta R5 R 5 7:20,1 +00:40,0 +00:04,9 1
11 8 RAOUX Jean-Michel/MAGAT Laurent Citroën DS3 WRC A 8W 7:27,2 +00:47,1 +00:07,1 1
12 5 CHAYNES Gary/TRIBOUT Christian Citroën C4 WRC FA 8W 7:28,1 +00:48,0 +00:00,9 1
13 6 ROUSSET Eric/GOSSET Jean-David Citroën Xsara WRC FA 8W 7:28,2 +00:48,1 +00:00,1
14 56 DE MEVIUS Guillaume/LOUKA Louis Peugeot 208 VTI R 2 7:30,1 +00:50,0 +00:01,9 3
15 40 MARTI Christian/LAVIALE Jean-Marc Mitsubishi Lancer Evo9 N 4 7:30,5 +00:50,4 +00:00,4 1
16 54 PELLIER Laurent/NEYRET-GIGOT Benoît Peugeot 208 VTI R 2 7:30,7 +00:50,6 +00:00,2 3
17 10 "PIANO"/COTTU Paolo Subaru Impreza WRC FA 8W 7:33,3 +00:53,2 +00:02,6
18 59 RIBAUD Quentin/BALME Benoît Peugeot 208 VTI R 2 7:33,5 +00:53,4 +00:00,2 1 2 3
19 60 LARIO Taisko/RYYNANEN Sami Peugeot 208 VTI R 2 7:34,7 +00:54,6 +00:01,2 3
20 61 GAGO Diogo/DEL BARRIO GARCIA Rodolfo Peugeot 208 VTI R 2 7:37,0 +00:56,9 +00:02,3 3
21 57 LLARENA Efren/FERNANDEZ Sara Peugeot 208 VTI R 2 7:38,6 +00:58,5 +00:01,6 3
22 38 MOREL Jean-Luc/GIDEL Philippe Subaru Impreza WRX FN 4 7:38,8 +00:58,7 +00:00,2
23 62 SAHILA Aki/SUORSA Rami Peugeot 208 VTI R 2 7:38,8 +00:58,7 3
24 50 VEYRARD Didier/TARDY Vincent Subaru Impreza STI FN 4 7:39,2 +00:59,1 +00:00,4
25 39 BENIER Thomas/PRASSE Cédric Subaru Impreza WRX N 4 7:40,3 +01:00,2 +00:01,1 1
26 27 TARDY Guillaume/CHOUDEY Marc-Emilien Subaru Impreza FA 8 7:41,0 +01:00,9 +00:00,7
27 36 SALIN Daniel/SALIN Brigitte Subaru Impreza WRX R 4 7:41,2 +01:01,1 +00:00,2
28 37 DESANGLES Yanis/THERON Nicolas Subaru Impreza WRX R 4 7:44,8 +01:04,7 +00:03,6
29 70 PINHEIRO Karl-Alexandre/LE FLOCH Franck Peugeot 208 VTI R 2 7:45,1 +01:05,0 +00:00,3 3
30 7 CLOT Charles/LEON Thierry Ford Fiesta WRC A 8W 7:45,6 +01:05,5 +00:00,5 1
31 30 CHIAVARO Daniel/DUPANLOUP Alexandra Subaru Impreza Sti FA 8 7:45,8 +01:05,7 +00:00,2
32 35 MORDACQ Laurent/MORTIER Hervé Mitsubishi Lancer Evo9 R 4 7:47,1 +01:07,0 +00:01,3 1
33 20 GAIDOZ Hervé/RICHARD François Subaru Impreza WRX FA 8 7:49,1 +01:09,0 +00:02,0 1
34 17 FRAU Richard/GASTINEL Jean-Francois Ford Fiesta R5 R 5 7:49,2 +01:09,1 +00:00,1 1
35 75 VENTURINI Henri/CORONA Fabrice Peugeot 208 VTI R 2 7:52,3 +01:12,2 +00:03,1 3
36 15 BESSON Jean-Pascal/ROISSAC Patrice Skoda Fabia R5 R 5 7:52,4 +01:12,3 +00:00,1 1
37 83 MARCHAL Eddy/JOLE Damien Citroën Saxo T4 FA 6K 7:53,2 +01:13,1 +00:00,8 1
38 63 WAGEMANS Joachim/DU PAN Anton Peugeot 208 VTI R 2 7:53,5 +01:13,4 +00:00,3 3
39 65 BOSCH Florentin/LAZZARINI Jean-Paul Peugeot 208 VTI R 2 7:55,2 +01:15,1 +00:01,7 3
40 43 PUEL Gérard/PUEL Caroline Mitsubishi Lancer Evo8 FN 4 7:58,0 +01:17,9 +00:02,8
41 124 MASCLAUX Arnaud/CORMERAIS Loïc Renault Clio Ragnotti F2 14 7:58,0 +01:17,9 1 2
42 72 TAVENEAU Sam/POINT Clément Peugeot 208 VTI R 2 7:59,0 +01:18,9 +00:01,0 3
43 64 HAIGH-SMITH Ashley/BURNS Niall Peugeot 208 VTI R 2 7:59,8 +01:19,7 +00:00,8 3
44 87 SALGUES Gilles/MOUYSSET Jérôme Citroën Saxo T4 FA 6K 8:00,4 +01:20,3 +00:00,6
45 81 VIALLE Lilian/GHIRARDELLO Manuel Renault Clio R3 R 3 8:00,6 +01:20,5 +00:00,2 1 2
46 23 FILLAYRE Jacques/DERRE Cyril Mitsubishi Lancer Evo4 FA 8 8:00,8 +01:20,7 +00:00,2
47 42 CONDAMINES Florian/DELMAS Cyril Subaru Impreza N 4 8:00,9 +01:20,8 +00:00,1
48 21 GIRAUD Emmanuel/GIRAUD Grégory Mitsubishi Lancer Evo8 FA 8 8:02,3 +01:22,2 +00:01,4
49 67 JAMET Jérémy/SECACHE Michaël Peugeot 208 VTI R 2 8:03,3 +01:23,2 +00:01,0 3
50 79 JOUINES Rémi/BONICEL Adrien Peugeot 207 Rc R 3 8:04,5 +01:24,4 +00:01,2
51 90 COLOMBE Geoffroy/FABREGUE Régis Peugeot 206 XS FA 6K 8:04,7 +01:24,6 +00:00,2
52 53 VITAL Jean-Pierre/DECOUZON Pierre Citroën Saxo VTS F2 13 8:05,1 +01:25,0 +00:00,4 1 2
53 48 PRIOLO Laurent/DALMAS Yannick Mitsubishi Lancer Evo9 N 4 8:05,1 +01:25,0
54 69 AUTIERO Matthieu/ANDREU Axel Peugeot 208 VTI R 2 8:05,9 +01:25,8 +00:00,8 3
55 52 JULIA David/AUBERTIN Ludovic Peugeot 206 Rc F2 14 8:08,7 +01:28,6 +00:02,8 1 2
56 44 GUIGNARD Eric/MEFFRE Didier Subaru Impreza N 4 8:09,6 +01:29,5 +00:00,9
57 76 COLNEY Thierry/FORTMANN Patrick Citroën DS3 R3 R 3 8:09,6 +01:29,5 1 2
58 46 LOPEZ Yannick/LOPEZ Brice Subaru Impreza WRX N 4 8:09,9 +01:29,8 +00:00,3
59 94 JOUINES Jean/CHABBERT Martin Opel Adam Rally R FR2 8:10,0 +01:29,9 +00:00,1
60 95 GOUY Quentin/THILLIEZ Quentin Citroën C2 R2 R 2 8:10,8 +01:30,7 +00:00,8
61 85 GRIMAUD Roger/GRIMAUD Laurent Citroën Saxo T4 FA 6K 8:13,4 +01:33,3 +00:02,6
62 99 FOTIA Anthony/MILLET Kévin Ford Fiesta R2 R 2 8:14,9 +01:34,8 +00:01,5
63 41 FONTAINE Fabien/FONTAINE Bastien Mitsubishi Lancer Evo5 FN 4 8:16,1 +01:36,0 +00:01,2
64 102 SOUFFEZ Frédéric/PRUVOST Astrid Peugeot 206 Rc FA 7 8:16,1 +01:36,0 1 2
65 103 TEVELLE Cédric/FACCIO Alexandra Peugeot 206 Rc FA 7 8:16,7 +01:36,6 +00:00,6
66 91 BERTON Charlotte/TAILLANDIER Thomas Citroën Saxo T4 FA 6K 8:17,1 +01:37,0 +00:00,4
67 25 GIORDANENGO Jimmy/DELAMOTTE Alexis Mitsubishi Lancer Evo7 FA 8 8:17,2 +01:37,1 +00:00,1
68 86 MARCOBAL Thierry/MARCOBAL-BASTIDE Cantin Citroën Saxo T4 FA 6K 8:19,1 +01:39,0 +00:01,9
69 80 GUINCHARD Emmanuel/CHATELAIN Mickaël Peugeot 207 Rc R 3 8:19,4 +01:39,3 +00:00,3
70 98 DEFANTE Romain/TEMPIER Romain Ford Fiesta R2 R 2 8:19,5 +01:39,4 +00:00,1
71 132 SABATIER Florent/SANTIAGO Thomas Peugeot 106 S16 FA 6 8:20,1 +01:40,0 +00:00,6 1 2
72 71 RAMBAUD Sébastien/RICOU Brice Peugeot 208 VTI R 2 8:20,2 +01:40,1 +00:00,1 3
73 31 MARON-GIRARD Alain/GRENIER Bernard Mitsubishi Lancer Evo9 FA 8 8:22,2 +01:42,1 +00:02,0
74 28 GIL Stéphane/MORGET Arnaud Subaru Impreza WRX FA 8 8:24,0 +01:43,9 +00:01,8
75 117 ROUCOULY Mathieu/GILHODES Jean-Louis Peugeot 309 GTI 16S F2 14 8:26,3 +01:46,2 +00:02,3
76 111 PILLARD Cédric/NOHARET Laurent Peugeot 206 Rc F2 14 8:27,0 +01:46,9 +00:00,7 1 2
77 125 BELLIARDO Daniel/BRAQUET Jean-Baptiste Peugeot 306 S16 FN 3 8:28,1 +01:48,0 +00:01,1
78 73 MOLLARD Alexandre/EYMIN PETOT Nicolas Peugeot 208 VTI R 2 8:28,2 +01:48,1 +00:00,1 3
79 145 BRISSON Eddy/MASSON Pascal Suzuki Swift FN 2 8:29,3 +01:49,2 +00:01,1
80 47 CAMPAGNOLI Gabriele/ARENA Nicola Subaru Impreza WRX N 4 8:29,5 +01:49,4 +00:00,2
81 89 CREPIN Maude/FRANCOIS Léa Citroën Saxo T4 FA 6K 8:29,7 +01:49,6 +00:00,2
82 113 BLANCK Lionel/BLANCK Arnaud Peugeot 206 Rc F2 14 8:29,8 +01:49,7 +00:00,1
83 116 RAYNAUD Gabriel/JULIEN William Seat Ibiza GTI F2 14 8:31,6 +01:51,5 +00:01,8 1 2
84 120 RIEU Vincent/DEIXONNE Charles Renault Clio Ragnotti F2 14 8:33,6 +01:53,5 +00:02,0
85 88 QUARROZ Damien/VOLPI Cécile Citroën Saxo T4 FA 6K 8:34,0 +01:53,9 +00:00,4
86 77 DAZY Jean-Pierre/LOIZEAUX Didier Renault Clio R3 R 3 8:36,2 +01:56,1 +00:02,2 1 2
87 45 ECK Jean-Luc/ECK Aurélien Subaru Impreza N 4 8:39,1 +01:59,0 +00:02,9
88 107 ROCHER Arnaud/PAULHAN Sabine Renault Clio RS FA 7 8:42,1 +02:02,0 +00:03,0
89 115 MORARD Philippe/GROLIER Cédric Citroën ZX 16V F2 14 8:42,5 +02:02,4 +00:00,4
90 92 BRENIAUX Sébastien/JACQUES Anthony Peugeot 206 XS FA 6K 8:43,8 +02:03,7 +00:01,3
91 97 MARGAILLAN Hugo/POUJOL Sébastien Ford Fiesta R2 R 2 8:43,9 +02:03,8 +00:00,1
92 119 MOULIN François/BONNET Dorine Renault Clio RS F2 14 8:44,8 +02:04,7 +00:00,9
93 135 RAMEL Olivier/BODENMANN Jacques-Victor Peugeot 106 GT FA 6 8:45,2 +02:05,1 +00:00,4
94 96 PUVERIC Gilles/LE BORGNE Didier Peugeot 208 VTI R 2 8:46,7 +02:06,6 +00:01,5
95 149 RICHAUD Pascal/SENDJAKEDINE Mikael Suzuki Swift Sport FN 2 8:47,4 +02:07,3 +00:00,7 1 2
96 126 VANTILLARD Jean-Marc/DARRAS Pascaline Peugeot 206 Rc FN 3 8:47,5 +02:07,4 +00:00,1
97 78 BOUCHET Guillaume/BLAMPEY Fabien Peugeot 207 Rc R 3 8:49,0 +02:08,9 +00:01,5
98 151 ROCHE Ivan/GREVOT Florian Peugeot 106 XSI F2 12 8:49,4 +02:09,3 +00:00,4 1 2
99 134 RALITE Christophe/ABBAL Marie Peugeot 106 S16 FA 6 8:51,5 +02:11,4 +00:02,1
100 112 REGORD Hervé/REGORD Camille Peugeot 205 GTI F2 14 8:52,5 +02:12,4 +00:01,0 1 2
101 136 FOURNIER Nicolas/VATTEAU Kévin Peugeot 206 XS F2 13 8:53,4 +02:13,3 +00:00,9
102 33 ROUGIER Régis/SOGNO Emilien Subaru Impreza WRX FA 8 8:59,9 +02:19,8 +00:06,5
103 127 LESCURE Philippe/ESCAICH Bertrand Peugeot 306 S16 FN 3 9:00,5 +02:20,4 +00:00,6
104 106 GELLUSSEAU Luc/DEJOUX Charly Peugeot 306 S16 FA 7 9:00,5 +02:20,4
105 138 CAYLA Corentin/DUMAS Bastien Citroën Saxo VTS F2 13 9:06,2 +02:26,1 +00:05,7
106 152 VUITTENEZ Victorien/COTE COLISSON Maxime Peugeot 106 XSI FN 1 9:11,2 +02:31,1 +00:05,0
107 129 GAGNEUR Hervé/LEIBENGUTH Christophe Peugeot 306 S16 FN 3 9:14,0 +02:33,9 +00:02,8
108 140 VAYSSE Adrien/LAURENS Clément Peugeot 106 S16 F2 13 9:18,8 +02:38,7 +00:04,8
109 142 BRENGUES Jean-Marie/BRENGUES Mélanie Peugeot 205 GTI F2 13 9:19,1 +02:39,0 +00:00,3
110 139 GELY Michel/VALENTIN Cédric Peugeot 206 XS F2 13 9:22,6 +02:42,5 +00:03,5
111 146 DOLGOPYATOFF Damien/FRANCOIS Solene Suzuki Swift FN 2 9:24,7 +02:44,6 +00:02,1
112 148 LATIEZE Yvan/GOUY Cindy Peugeot 106 S16 FN 2 9:30,7 +02:50,6 +00:06,0
113 104 FRELAUT Yohann/CASSAGNADE Pascal Peugeot 206 Rc FA 7 9:33,3 +02:53,2 +00:02,6
114 105 GAUTHIER Bernard/BLANQUET Muriel Peugeot 306 S16 FA 7 9:34,4 +02:54,3 +00:01,1
115 153 CEUGNET Sébastien/LUCON Pascal Peugeot 106 XSI FN 1 9:37,2 +02:57,1 +00:02,8
116 130 RESSOUCHE Charlotte/BARDOUX Pauline Ford Fiesta ST N 3 9:42,9 +03:02,8 +00:05,7
117 26 GLEY Jean-Pierre/AUBANEL Aurélien B.M.W. 325 iX FA 8 9:43,8 +03:03,7 +00:00,9
118 108 GUILLON Jean-Luc/GUILLON Thibault Peugeot 206 GT FA 7 9:44,8 +03:04,7 +00:01,0
119 150 VAILLE Mickaël/SAVA-LOPEZ Sabrina Peugeot 205 GTI FN 2 9:48,4 +03:08,3 +00:03,6
120 137 RAKOTOMALALA Andry/GORGET Chloé Peugeot 106 S16 F2 13 10:01,0 +03:20,9 +00:12,6
121 154 BES Yves/LE PICHON Christelle Peugeot 106 XR F2 11 10:03,5 +03:23,4 +00:02,5
122 147 DI PAOLO Alain/MORILLON Frederika Peugeot 106 S16 FN 2 10:27,1 +03:47,0 +00:23,6
123 141 PICARD Erick/PONTILLE Hervé Dacia Logan F2 13 10:28,1 +03:48,0 +00:01,0
124 155 SOUBIROUX Vincent/VIGUIE Florian Renault Clio F2 11 11:05,1 +04:25,0 +00:37,0
125 144 TODESCHINI Florent/PORCHERON Giovanni Dacia Logan F2 13 17:01,0 +10:20,9 +05:55,9
Clt Equipage Voiture Gr/Cl Temps Ecart 1er Ecart préc. Catégories
Commentaires: © PatricK Soft  
(Temps forfaitaires=couleur bleue)
Classés:125

Epreuve: Groupe: Catégorie:

 
Retour
Classement ES4-Loupiac (9.000 km)